Canning, South Dakota
Current Conditions -  °F | °C
As of 7:53 AM on Friday 24 Oct 2014 (Local Time) from KPIR Reporting Station
Clear Clear  
Wind Chill: 38°   Ceiling: Unl
Heat Index: 41°   Visibility: 10mi
Dew Point: 33°   Wind: 5mph
Humidity: 73%   Direction: 250°WSW
Pressure: 29.87"   Gusts: NA
Location:  44.3693°N, 100.04°W
Report Text: KPIR 241253Z AUTO 25004KT 10SM CLR 05/01 A2987 RMK AO2 SLP122 T00500006
Loading
Personal Weather Stations






























Interactive Weather Map
Tropical Storm Tracking
New forecast layout! Learn more

10-Day Weather Forecast

Advertisements
Track Severe Weather on mobile